Time;durP1;ratioP1;P1;durP2;ratioP2;P2;SDS_P1;SDS_P2;PMS_P1;PMS_P2;Temp;Humidity;BMP_temperature;BMP_pressure;BME280_temperature;BME280_humidity;BME280_pressure;Samples;Min_cycle;Max_cycle;Signal;HPM_P1;HPM_P2
2023/05/21 00:01:02;;;;;;;5.32;1.48;;;12.40;99.90;;;;;;5060634;28;20411;-60
2023/05/21 00:03:29;;;;;;;12.35;2.63;;;12.40;99.90;;;;;;5067399;28;20086;-62
2023/05/21 00:05:56;;;;;;;6.90;1.58;;;12.40;99.90;;;;;;5066659;28;20458;-61
2023/05/21 00:08:23;;;;;;;4.07;2.20;;;12.40;99.90;;;;;;5067058;28;20545;-61
2023/05/21 00:10:50;;;;;;;5.00;2.10;;;12.40;99.90;;;;;;5066712;28;20120;-60
2023/05/21 00:13:17;;;;;;;8.43;1.88;;;12.30;99.90;;;;;;4715353;28;9999806;-61
2023/05/21 00:15:43;;;;;;;5.90;2.97;;;12.30;99.90;;;;;;5064051;28;20452;-61
2023/05/21 00:18:10;;;;;;;6.63;2.13;;;12.30;99.90;;;;;;5067382;28;20068;-61
2023/05/21 00:20:37;;;;;;;6.85;2.25;;;12.20;99.90;;;;;;5066640;28;20049;-61
2023/05/21 00:23:04;;;;;;;9.98;2.15;;;12.20;99.90;;;;;;5066800;28;20195;-61
2023/05/21 00:25:31;;;;;;;9.55;2.50;;;12.10;99.90;;;;;;5066809;28;20048;-61
2023/05/21 00:27:58;;;;;;;11.27;2.20;;;12.10;99.90;;;;;;5066828;28;20461;-61
2023/05/21 00:30:24;;;;;;;5.60;2.78;;;12.10;99.90;;;;;;5066710;28;20071;-61
2023/05/21 00:32:51;;;;;;;5.03;1.88;;;12.10;99.90;;;;;;5066586;28;20158;-60
2023/05/21 00:35:18;;;;;;;9.02;2.30;;;12.00;99.90;;;;;;5066321;28;20048;-61
2023/05/21 00:37:46;;;;;;;10.55;2.58;;;12.00;99.90;;;;;;5059576;28;20044;-62
2023/05/21 00:40:13;;;;;;;6.05;2.55;;;12.00;99.90;;;;;;5066900;28;20094;-61
2023/05/21 00:42:40;;;;;;;5.40;2.20;;;12.00;99.90;;;;;;5058431;28;20084;-61
2023/05/21 00:45:07;;;;;;;8.02;1.67;;;12.00;99.90;;;;;;5066565;28;20079;-61
2023/05/21 00:47:34;;;;;;;5.72;2.22;;;11.90;99.90;;;;;;5066389;28;20496;-61
2023/05/21 00:50:02;;;;;;;11.50;1.85;;;11.90;99.90;;;;;;5066671;28;20099;-61
2023/05/21 00:52:29;;;;;;;7.60;2.78;;;11.90;99.90;;;;;;5053472;28;20048;-61
2023/05/21 00:54:56;;;;;;;7.57;2.22;;;11.90;99.90;;;;;;5071876;28;20044;-61
2023/05/21 00:57:24;;;;;;;11.27;2.05;;;11.90;99.90;;;;;;5058205;28;20075;-61
2023/05/21 00:59:51;;;;;;;11.73;2.45;;;11.80;99.90;;;;;;5080404;28;20050;-61
2023/05/21 01:02:18;;;;;;;7.72;2.67;;;11.80;99.90;;;;;;5069608;28;20052;-61
2023/05/21 01:04:45;;;;;;;8.80;2.28;;;11.90;99.90;;;;;;5060214;28;20070;-61
2023/05/21 01:07:13;;;;;;;8.13;2.15;;;11.80;99.90;;;;;;5056695;28;20565;-60
2023/05/21 01:09:40;;;;;;;8.13;2.33;;;11.70;99.90;;;;;;5069682;28;20049;-60
2023/05/21 01:12:07;;;;;;;8.93;2.40;;;11.70;99.90;;;;;;5069608;28;20087;-60
2023/05/21 01:14:35;;;;;;;10.80;2.00;;;11.60;99.90;;;;;;5063991;28;20487;-61
2023/05/21 01:17:04;;;;;;;8.45;2.38;;;11.60;99.90;;;;;;5069723;28;20094;-61
2023/05/21 01:19:31;;;;;;;7.30;2.22;;;11.60;99.90;;;;;;5064338;28;20058;-60
2023/05/21 01:22:04;;;;;;;6.05;2.50;;;11.60;99.90;;;;;;5069441;28;20056;-60
2023/05/21 01:24:31;;;;;;;7.82;2.60;;;11.50;99.90;;;;;;5069640;28;20051;-61
2023/05/21 01:26:59;;;;;;;11.73;2.25;;;11.50;99.90;;;;;;5054929;28;20056;-61
2023/05/21 01:29:26;;;;;;;15.80;3.88;;;11.50;99.90;;;;;;5069477;28;20458;-61
2023/05/21 01:32:03;;;;;;;4.85;2.10;;;11.30;99.90;;;;;;5069324;28;20055;-61
2023/05/21 01:34:44;;;;;;;9.05;2.63;;;11.30;99.90;;;;;;5069279;28;20048;-61
2023/05/21 01:37:13;;;;;;;12.15;2.70;;;11.30;99.90;;;;;;5054635;28;20492;-62
2023/05/21 01:39:42;;;;;;;7.13;3.15;;;11.20;99.90;;;;;;5079271;28;20856;-62
2023/05/21 01:42:09;;;;;;;7.85;2.53;;;11.10;99.90;;;;;;5056349;28;20072;-61
2023/05/21 01:44:36;;;;;;;9.15;2.47;;;11.20;99.90;;;;;;5069247;28;20048;-62
2023/05/21 01:47:03;;;;;;;9.07;2.72;;;11.20;99.90;;;;;;5058691;28;20048;-62
2023/05/21 01:49:30;;;;;;;10.57;2.63;;;11.20;99.90;;;;;;5074490;28;20102;-61
2023/05/21 01:51:56;;;;;;;15.35;2.72;;;11.10;99.90;;;;;;5058588;28;20048;-62
2023/05/21 01:54:23;;;;;;;9.95;3.75;;;11.10;99.90;;;;;;5068938;28;20123;-61
2023/05/21 01:56:50;;;;;;;14.43;2.72;;;11.10;99.90;;;;;;5069073;28;20056;-62
2023/05/21 01:59:17;;;;;;;16.15;4.05;;;11.20;99.90;;;;;;5069116;28;20094;-61
2023/05/21 02:01:44;;;;;;;12.70;4.05;;;11.10;99.90;;;;;;5077004;28;20056;-61
2023/05/21 02:04:10;;;;;;;7.78;2.83;;;11.10;99.90;;;;;;5068968;28;20118;-61
2023/05/21 02:06:38;;;;;;;10.02;3.17;;;11.10;99.90;;;;;;5068940;28;20052;-61
2023/05/21 02:09:05;;;;;;;9.05;3.60;;;11.10;99.90;;;;;;5068149;28;20036;-61
2023/05/21 02:11:32;;;;;;;13.50;4.47;;;11.00;99.90;;;;;;5055267;28;20048;-61
2023/05/21 02:13:59;;;;;;;21.30;3.10;;;11.00;99.90;;;;;;5069116;28;20036;-62
2023/05/21 02:16:26;;;;;;;9.93;2.42;;;11.10;99.90;;;;;;5068791;28;20049;-61
2023/05/21 02:18:56;;;;;;;10.07;2.65;;;11.10;99.90;;;;;;5068602;28;20418;-61
2023/05/21 02:21:23;;;;;;;8.88;2.67;;;11.00;99.90;;;;;;5068047;28;20086;-61
2023/05/21 02:23:49;;;;;;;8.93;3.20;;;10.90;99.90;;;;;;5068213;28;20045;-61
2023/05/21 02:26:16;;;;;;;9.88;2.90;;;10.90;99.90;;;;;;5067727;28;20044;-61
2023/05/21 02:28:43;;;;;;;12.60;2.97;;;10.90;99.90;;;;;;5068509;28;20572;-61
2023/05/21 02:31:11;;;;;;;10.07;3.22;;;10.90;99.90;;;;;;5068003;28;20478;-61
2023/05/21 02:33:40;;;;;;;6.35;2.65;;;10.90;99.90;;;;;;5068449;28;20047;-61
2023/05/21 02:36:11;;;;;;;15.98;3.85;;;10.90;99.90;;;;;;5067893;28;20044;-61
2023/05/21 02:38:42;;;;;;;7.78;2.83;;;10.90;99.90;;;;;;5068076;28;20059;-62
2023/05/21 02:41:10;;;;;;;13.68;3.65;;;10.80;99.90;;;;;;5066951;28;20052;-61
2023/05/21 02:43:37;;;;;;;13.98;3.55;;;10.70;99.90;;;;;;5060393;28;20044;-61
2023/05/21 02:46:04;;;;;;;6.35;2.92;;;10.80;99.90;;;;;;5067793;28;20086;-61
2023/05/21 02:48:31;;;;;;;10.63;3.40;;;10.70;99.90;;;;;;5067983;28;20040;-61
2023/05/21 02:50:58;;;;;;;14.43;4.03;;;10.70;99.90;;;;;;5067214;28;20106;-61
2023/05/21 02:53:25;;;;;;;9.60;3.03;;;10.60;99.90;;;;;;5068018;28;20041;-60
2023/05/21 02:55:52;;;;;;;14.65;3.13;;;10.60;99.90;;;;;;5067853;28;20041;-61
2023/05/21 02:58:22;;;;;;;15.80;4.35;;;10.50;99.90;;;;;;5067864;28;20068;-60
2023/05/21 03:00:49;;;;;;;12.38;3.78;;;10.60;99.90;;;;;;5067372;28;20049;-60
2023/05/21 03:03:15;;;;;;;6.28;3.40;;;10.40;99.90;;;;;;5066745;28;20041;-61
2023/05/21 03:05:44;;;;;;;12.30;3.63;;;10.40;99.90;;;;;;5065304;28;20110;-60
2023/05/21 03:08:11;;;;;;;12.10;3.92;;;10.30;99.90;;;;;;5065700;28;20691;-60
2023/05/21 03:10:38;;;;;;;10.52;3.72;;;10.30;99.90;;;;;;5066892;28;20102;-61
2023/05/21 03:13:07;;;;;;;12.73;3.45;;;10.30;99.90;;;;;;5066934;28;20072;-61
2023/05/21 03:15:37;;;;;;;14.07;3.40;;;10.30;99.90;;;;;;5067346;28;20087;-61
2023/05/21 03:18:04;;;;;;;7.68;3.03;;;10.40;99.90;;;;;;5066703;28;20382;-61
2023/05/21 03:20:32;;;;;;;14.80;3.50;;;10.30;99.90;;;;;;5067524;28;20114;-60
2023/05/21 03:22:59;;;;;;;9.82;3.15;;;10.30;99.90;;;;;;5067299;28;20052;-61
2023/05/21 03:25:26;;;;;;;12.63;3.78;;;10.20;99.90;;;;;;5067806;28;20044;-60
2023/05/21 03:27:52;;;;;;;7.68;3.50;;;10.20;99.90;;;;;;5067229;28;20098;-60
2023/05/21 03:30:19;;;;;;;10.52;3.47;;;10.20;99.90;;;;;;5067900;28;20444;-60
2023/05/21 03:32:46;;;;;;;15.88;4.43;;;10.30;99.90;;;;;;5067021;28;20049;-60
2023/05/21 03:35:13;;;;;;;15.05;5.93;;;10.20;99.90;;;;;;5067626;28;20087;-60
2023/05/21 03:37:40;;;;;;;12.63;4.32;;;10.30;99.90;;;;;;5066731;28;20507;-59
2023/05/21 03:40:07;;;;;;;15.13;4.28;;;10.30;99.90;;;;;;5067176;28;20048;-61
2023/05/21 03:42:34;;;;;;;9.23;3.83;;;10.30;99.90;;;;;;5066790;28;20071;-59
2023/05/21 03:45:01;;;;;;;17.33;4.45;;;10.30;99.90;;;;;;5066530;28;20044;-59
2023/05/21 03:47:28;;;;;;;10.00;4.22;;;10.30;99.90;;;;;;5066749;28;20515;-60
2023/05/21 03:49:55;;;;;;;10.80;3.92;;;10.20;99.90;;;;;;5067340;28;20044;-60
2023/05/21 03:52:22;;;;;;;8.52;4.28;;;10.20;99.90;;;;;;5066843;28;20420;-60
2023/05/21 03:54:49;;;;;;;10.18;4.05;;;10.20;99.90;;;;;;5066734;28;20080;-59
2023/05/21 03:57:15;;;;;;;9.93;3.95;;;10.20;99.90;;;;;;5067099;28;20067;-61
2023/05/21 03:59:42;;;;;;;12.27;4.32;;;10.20;99.90;;;;;;5067053;28;20491;-61
2023/05/21 04:02:09;;;;;;;21.52;6.40;;;10.10;99.90;;;;;;5066945;28;20079;-61
2023/05/21 04:04:36;;;;;;;12.32;4.07;;;10.10;99.90;;;;;;5064443;28;20049;-61
2023/05/21 04:07:03;;;;;;;8.48;4.60;;;10.10;99.90;;;;;;5066392;28;20057;-61
2023/05/21 04:09:30;;;;;;;11.00;4.53;;;10.10;99.90;;;;;;5066627;28;20055;-61
2023/05/21 04:11:56;;;;;;;11.80;4.38;;;10.10;99.90;;;;;;5066946;28;20300;-61
2023/05/21 04:14:23;;;;;;;13.10;4.90;;;10.00;99.90;;;;;;5066472;28;20044;-61
2023/05/21 04:16:50;;;;;;;13.02;5.30;;;10.00;99.90;;;;;;5067300;28;20075;-61
2023/05/21 04:19:17;;;;;;;9.65;4.15;;;9.80;99.90;;;;;;5066828;28;20045;-61
2023/05/21 04:21:44;;;;;;;7.30;3.90;;;9.80;99.90;;;;;;5055661;28;20049;-60
2023/05/21 04:24:11;;;;;;;13.40;4.30;;;9.90;99.90;;;;;;5066618;28;20045;-60
2023/05/21 04:26:40;;;;;;;10.90;4.55;;;9.90;99.90;;;;;;5066924;28;20087;-60
2023/05/21 04:29:08;;;;;;;11.20;3.95;;;10.00;99.90;;;;;;5066551;28;20131;-61
2023/05/21 04:31:35;;;;;;;11.40;4.15;;;9.90;99.90;;;;;;5067654;28;20132;-61
2023/05/21 04:34:02;;;;;;;12.70;4.45;;;10.00;99.90;;;;;;5070521;28;20055;-61
2023/05/21 04:36:29;;;;;;;9.55;5.40;;;10.00;99.90;;;;;;5073371;28;20053;-60
2023/05/21 04:38:56;;;;;;;13.23;4.97;;;10.00;99.90;;;;;;5066853;28;20113;-61
2023/05/21 04:41:22;;;;;;;12.15;4.78;;;10.00;99.90;;;;;;5069604;28;20056;-60
2023/05/21 04:43:53;;;;;;;23.42;5.65;;;9.90;99.90;;;;;;5070202;28;20555;-60
2023/05/21 04:46:24;;;;;;;8.48;4.00;;;9.80;99.90;;;;;;5070170;28;20126;-61
2023/05/21 04:48:54;;;;;;;7.68;4.13;;;9.80;99.90;;;;;;5070176;28;20307;-60
2023/05/21 04:51:23;;;;;;;16.00;5.45;;;9.80;99.90;;;;;;5069475;28;20052;-61
2023/05/21 04:53:50;;;;;;;14.13;4.63;;;9.90;99.90;;;;;;5069722;28;20052;-60
2023/05/21 04:56:17;;;;;;;12.57;5.05;;;9.80;99.90;;;;;;5070136;28;20048;-60
2023/05/21 04:58:44;;;;;;;15.27;5.00;;;9.80;99.90;;;;;;5070208;28;20053;-60
2023/05/21 05:01:11;;;;;;;18.00;4.68;;;9.90;99.90;;;;;;5069588;28;20076;-60
2023/05/21 05:03:38;;;;;;;11.85;4.88;;;9.90;99.90;;;;;;5070145;28;20053;-61
2023/05/21 05:06:06;;;;;;;11.43;5.28;;;9.90;99.90;;;;;;5079060;28;20094;-61
2023/05/21 05:08:34;;;;;;;15.25;5.40;;;10.00;99.90;;;;;;5061749;28;20060;-60
2023/05/21 05:11:01;;;;;;;16.50;5.72;;;10.00;99.90;;;;;;5068882;28;20094;-60
2023/05/21 05:13:27;;;;;;;12.77;5.40;;;10.10;99.90;;;;;;5058752;28;20048;-60
2023/05/21 05:15:56;;;;;;;21.85;6.63;;;10.10;99.90;;;;;;5069440;28;20048;-59
2023/05/21 05:18:23;;;;;;;11.60;4.93;;;10.10;99.90;;;;;;5040665;28;20072;-60
2023/05/21 05:20:50;;;;;;;10.52;5.20;;;10.20;99.90;;;;;;5068875;28;20127;-60
2023/05/21 05:23:16;;;;;;;9.18;4.95;;;10.30;99.90;;;;;;5069011;28;20060;-59
2023/05/21 05:25:43;;;;;;;20.35;6.70;;;10.30;99.90;;;;;;5069303;28;20075;-60
2023/05/21 05:28:10;;;;;;;18.65;6.18;;;10.40;99.90;;;;;;5068804;28;20098;-62
2023/05/21 05:30:37;;;;;;;13.38;4.80;;;10.50;99.90;;;;;;5069166;28;20522;-59
2023/05/21 05:33:04;;;;;;;18.50;6.13;;;10.50;99.90;;;;;;5069032;28;20048;-60
2023/05/21 05:35:30;;;;;;;15.02;4.88;;;10.60;99.90;;;;;;5056296;28;20040;-60
2023/05/21 05:37:57;;;;;;;12.85;5.35;;;10.70;99.90;;;;;;5069155;28;20040;-60
2023/05/21 05:40:24;;;;;;;13.02;4.93;;;10.80;99.90;;;;;;5069299;28;20041;-60
2023/05/21 05:42:51;;;;;;;14.20;4.63;;;10.80;99.90;;;;;;5067529;28;20044;-60
2023/05/21 05:45:18;;;;;;;13.95;3.88;;;10.90;99.90;;;;;;5068799;28;20047;-60
2023/05/21 05:47:45;;;;;;;13.07;5.20;;;11.00;99.90;;;;;;5068776;28;20502;-60
2023/05/21 05:50:12;;;;;;;8.82;4.68;;;11.00;99.90;;;;;;5068842;28;20048;-60
2023/05/21 05:52:39;;;;;;;19.48;5.07;;;11.00;99.90;;;;;;5068085;28;20691;-61
2023/05/21 05:55:07;;;;;;;16.38;5.18;;;11.00;99.90;;;;;;5068722;28;20093;-60
2023/05/21 05:57:34;;;;;;;15.80;6.57;;;11.10;99.90;;;;;;5068410;28;20049;-61
2023/05/21 06:00:02;;;;;;;12.70;5.18;;;11.10;99.90;;;;;;5069195;28;20098;-61
2023/05/21 06:02:29;;;;;;;13.90;4.60;;;11.20;99.90;;;;;;5067678;28;20534;-61
2023/05/21 06:04:57;;;;;;;12.93;5.78;;;11.30;99.90;;;;;;5056321;28;20068;-61
2023/05/21 06:07:23;;;;;;;21.40;5.82;;;11.30;99.90;;;;;;5068053;28;20082;-60
2023/05/21 06:09:50;;;;;;;11.27;4.43;;;11.40;99.90;;;;;;5068722;28;20040;-61
2023/05/21 06:12:17;;;;;;;10.00;4.10;;;11.40;99.90;;;;;;5068469;28;20048;-61
2023/05/21 06:14:45;;;;;;;14.38;4.22;;;11.50;99.90;;;;;;5067803;28;20065;-61
2023/05/21 06:17:11;;;;;;;12.50;4.53;;;11.50;99.90;;;;;;5068174;28;20044;-63
2023/05/21 06:19:38;;;;;;;13.05;6.00;;;11.60;99.90;;;;;;5068462;28;20053;-61
2023/05/21 06:22:05;;;;;;;18.98;5.72;;;11.60;99.90;;;;;;5078556;28;20062;-61
2023/05/21 06:24:32;;;;;;;12.95;4.30;;;11.60;99.90;;;;;;5068204;28;20054;-61
2023/05/21 06:26:59;;;;;;;23.17;4.97;;;11.70;99.90;;;;;;5073526;28;20493;-61
2023/05/21 06:29:26;;;;;;;14.02;4.47;;;11.80;99.90;;;;;;5072822;28;20044;-61
2023/05/21 06:31:53;;;;;;;12.88;4.53;;;11.90;99.90;;;;;;5073820;28;20048;-61
2023/05/21 06:34:19;;;;;;;15.30;4.05;;;11.90;99.90;;;;;;5075885;28;20040;-61
2023/05/21 06:36:47;;;;;;;13.43;5.07;;;12.00;99.90;;;;;;5069950;28;20048;-61
2023/05/21 06:39:14;;;;;;;17.80;5.13;;;12.00;99.90;;;;;;5066446;28;20072;-61
2023/05/21 06:41:40;;;;;;;13.68;3.70;;;12.10;99.90;;;;;;5071560;28;20091;-61
2023/05/21 06:44:07;;;;;;;13.23;3.88;;;12.20;99.90;;;;;;5075697;28;20407;-62
2023/05/21 06:46:35;;;;;;;6.20;3.92;;;12.20;99.90;;;;;;5073447;28;20048;-61
2023/05/21 06:49:01;;;;;;;10.23;3.78;;;12.30;99.90;;;;;;5067097;28;20048;-61
2023/05/21 06:51:28;;;;;;;9.75;4.13;;;12.40;99.90;;;;;;5067383;28;20048;-61
2023/05/21 06:53:55;;;;;;;14.75;5.57;;;12.40;99.90;;;;;;5066773;28;20106;-61
2023/05/21 06:56:22;;;;;;;7.93;3.55;;;12.50;99.90;;;;;;5067610;28;20514;-61
2023/05/21 06:58:49;;;;;;;10.88;3.47;;;12.50;99.90;;;;;;5067580;28;20045;-61
2023/05/21 07:01:16;;;;;;;8.32;3.25;;;12.60;99.90;;;;;;5067455;28;20064;-61
2023/05/21 07:03:43;;;;;;;12.80;3.42;;;12.70;99.90;;;;;;5066300;28;20402;-61
2023/05/21 07:06:09;;;;;;;10.77;3.88;;;12.70;99.90;;;;;;5062118;28;20086;-61
2023/05/21 07:08:36;;;;;;;16.70;3.85;;;12.70;99.90;;;;;;5076451;28;20036;-61
2023/05/21 07:11:03;;;;;;;18.98;4.40;;;12.80;99.90;;;;;;5075556;28;20528;-61
2023/05/21 07:13:30;;;;;;;5.82;3.83;;;12.80;99.90;;;;;;5073460;28;20822;-60
2023/05/21 07:15:56;;;;;;;12.52;4.05;;;12.90;99.90;;;;;;5075285;28;20563;-61
2023/05/21 07:18:23;;;;;;;12.27;4.20;;;12.90;99.90;;;;;;5073799;28;20044;-62
2023/05/21 07:20:50;;;;;;;9.35;3.05;;;13.00;99.90;;;;;;5068251;28;20117;-61
2023/05/21 07:23:17;;;;;;;9.45;3.88;;;13.00;99.90;;;;;;5069218;28;20084;-62
2023/05/21 07:25:44;;;;;;;16.88;3.55;;;13.10;99.90;;;;;;5066485;28;20037;-60
2023/05/21 07:28:10;;;;;;;8.65;3.20;;;13.20;99.90;;;;;;5067016;28;20052;-61
2023/05/21 07:30:37;;;;;;;9.05;3.40;;;13.20;99.90;;;;;;5067059;28;20044;-61
2023/05/21 07:33:04;;;;;;;11.98;3.35;;;13.30;99.90;;;;;;5067720;28;20075;-61
2023/05/21 07:35:31;;;;;;;11.10;3.40;;;13.40;99.90;;;;;;5067513;28;20091;-62
2023/05/21 07:37:58;;;;;;;9.90;3.08;;;13.50;99.90;;;;;;5061353;28;20092;-61
2023/05/21 07:40:25;;;;;;;12.88;3.88;;;13.60;99.90;;;;;;5067492;28;20044;-61
2023/05/21 07:42:51;;;;;;;8.65;3.08;;;13.60;99.90;;;;;;5067290;28;20050;-61
2023/05/21 07:45:18;;;;;;;5.65;2.95;;;13.70;99.90;;;;;;5067579;28;20094;-63
2023/05/21 07:47:45;;;;;;;9.55;2.90;;;13.80;99.90;;;;;;5067212;28;20052;-61
2023/05/21 07:50:13;;;;;;;8.35;3.08;;;13.90;99.90;;;;;;5067572;28;20089;-60
2023/05/21 07:52:40;;;;;;;13.02;3.35;;;14.00;99.90;;;;;;5067133;28;20282;-60
2023/05/21 07:55:08;;;;;;;5.95;2.72;;;14.00;99.90;;;;;;5033065;28;20065;-62
2023/05/21 07:57:35;;;;;;;6.65;2.83;;;14.10;99.90;;;;;;5060980;28;20045;-61
2023/05/21 08:00:04;;;;;;;10.13;2.97;;;14.20;99.90;;;;;;5066156;28;20427;-61
2023/05/21 08:02:31;;;;;;;8.20;2.83;;;14.20;99.90;;;;;;5067289;28;20045;-60
2023/05/21 08:04:57;;;;;;;11.98;2.70;;;14.30;99.90;;;;;;5067807;28;20620;-63
2023/05/21 08:07:25;;;;;;;8.13;2.83;;;14.30;99.90;;;;;;5080522;28;20087;-60
2023/05/21 08:09:53;;;;;;;12.30;2.65;;;14.40;99.90;;;;;;5071924;28;20048;-60
2023/05/21 08:12:20;;;;;;;4.85;2.08;;;14.50;99.90;;;;;;5074457;28;20097;-60
2023/05/21 08:14:46;;;;;;;8.73;3.60;;;14.60;99.90;;;;;;5071553;28;20060;-60
2023/05/21 08:17:14;;;;;;;7.68;2.25;;;14.70;99.90;;;;;;5070579;28;20517;-60
2023/05/21 08:19:41;;;;;;;5.82;1.95;;;14.80;99.90;;;;;;5060483;28;20125;-60
2023/05/21 08:22:08;;;;;;;9.10;2.25;;;14.90;99.90;;;;;;5070519;28;20101;-60
2023/05/21 08:24:35;;;;;;;5.97;1.88;;;14.90;99.90;;;;;;5071889;28;20101;-60
2023/05/21 08:27:02;;;;;;;6.28;2.17;;;15.00;99.90;;;;;;5071561;28;20048;-60
2023/05/21 08:29:29;;;;;;;8.98;2.42;;;15.10;99.90;;;;;;5058483;28;20090;-60
2023/05/21 08:31:56;;;;;;;8.45;1.83;;;15.20;99.90;;;;;;5071379;28;20499;-59
2023/05/21 08:34:23;;;;;;;8.57;1.98;;;15.20;99.90;;;;;;5056763;28;20052;-59
2023/05/21 08:36:50;;;;;;;6.45;2.13;;;15.30;99.90;;;;;;5071105;28;20720;-59
2023/05/21 08:39:17;;;;;;;7.97;2.22;;;15.40;99.90;;;;;;5070832;28;20044;-60
2023/05/21 08:41:50;;;;;;;4.32;1.83;;;15.50;99.90;;;;;;4900519;28;10000627;-60
2023/05/21 08:44:19;;;;;;;4.43;2.42;;;15.50;99.90;;;;;;5040293;28;20275;-59
2023/05/21 08:46:46;;;;;;;9.60;2.33;;;15.60;99.90;;;;;;5067492;28;20507;-60
2023/05/21 08:49:14;;;;;;;4.97;1.80;;;15.70;99.90;;;;;;5062091;28;20048;-60
2023/05/21 08:51:43;;;;;;;5.60;1.88;;;15.70;99.90;;;;;;5053183;28;20098;-59
2023/05/21 08:54:12;;;;;;;6.30;1.88;;;15.80;99.90;;;;;;5060313;28;20068;-60
2023/05/21 08:56:44;;;;;;;8.48;2.03;;;15.90;99.90;;;;;;5054916;28;20058;-59
2023/05/21 08:59:11;;;;;;;7.07;2.40;;;16.00;99.90;;;;;;5053410;28;20060;-59
2023/05/21 09:01:41;;;;;;;7.30;2.08;;;16.20;99.90;;;;;;5036741;28;20052;-59
2023/05/21 09:04:08;;;;;;;4.72;2.03;;;16.20;99.90;;;;;;5062065;28;20083;-59
2023/05/21 09:06:46;;;;;;;4.00;1.70;;;16.30;99.90;;;;;;5066311;28;20534;-59
2023/05/21 09:09:35;;;;;;;5.10;1.52;;;16.30;99.90;;;;;;5066538;28;20345;-59
2023/05/21 09:12:02;;;;;;;4.60;1.42;;;16.40;99.90;;;;;;5048982;28;20094;-60
2023/05/21 09:14:28;;;;;;;3.58;1.77;;;16.40;99.90;;;;;;5067812;28;20052;-60
2023/05/21 09:16:55;;;;;;;5.57;1.83;;;16.40;99.90;;;;;;5037840;28;20099;-59
2023/05/21 09:19:22;;;;;;;4.05;1.75;;;16.40;99.90;;;;;;5066121;28;20500;-60
2023/05/21 09:21:52;;;;;;;9.68;2.13;;;16.50;99.90;;;;;;5067436;28;20087;-60
2023/05/21 09:24:22;;;;;;;4.72;1.70;;;16.50;99.90;;;;;;5067073;28;20044;-60
2023/05/21 09:26:49;;;;;;;4.90;1.52;;;16.70;99.90;;;;;;5067402;28;20049;-59
2023/05/21 09:29:16;;;;;;;4.18;1.55;;;16.70;99.90;;;;;;5065449;28;20457;-60
2023/05/21 09:31:43;;;;;;;3.67;1.90;;;16.90;99.90;;;;;;5060053;28;20048;-61
2023/05/21 09:34:12;;;;;;;6.85;2.08;;;17.00;99.90;;;;;;5065742;28;20047;-61
2023/05/21 09:36:39;;;;;;;3.85;1.60;;;17.00;99.90;;;;;;5055034;28;20075;-61
2023/05/21 09:39:06;;;;;;;3.25;1.75;;;17.00;99.90;;;;;;5068046;28;20570;-60
2023/05/21 09:41:34;;;;;;;4.68;2.00;;;17.10;99.90;;;;;;5076613;28;20040;-60
2023/05/21 09:44:01;;;;;;;7.70;2.00;;;17.10;99.90;;;;;;5070557;28;20087;-60
2023/05/21 09:46:37;;;;;;;6.57;1.70;;;17.10;99.90;;;;;;5069137;28;20130;-60
2023/05/21 09:49:04;;;;;;;7.75;1.75;;;17.10;99.90;;;;;;5075598;28;20044;-61
2023/05/21 09:51:31;;;;;;;5.47;1.98;;;17.20;99.90;;;;;;5078968;28;20044;-61
2023/05/21 09:53:58;;;;;;;4.78;1.48;;;17.30;99.90;;;;;;5076845;28;20044;-60
2023/05/21 09:56:25;;;;;;;10.82;2.28;;;17.40;99.90;;;;;;5075721;28;20047;-60
2023/05/21 09:59:03;;;;;;;5.18;1.52;;;17.40;99.90;;;;;;5077904;28;20045;-60
2023/05/21 10:01:32;;;;;;;6.72;2.10;;;17.60;99.90;;;;;;5074307;28;20461;-61
2023/05/21 10:04:01;;;;;;;4.80;2.00;;;17.70;99.90;;;;;;5076195;28;20050;-61
2023/05/21 10:06:29;;;;;;;4.40;2.38;;;17.60;99.90;;;;;;5057409;28;20282;-60
2023/05/21 10:08:58;;;;;;;6.55;2.22;;;17.50;99.90;;;;;;5076968;28;20050;-60
2023/05/21 10:11:30;;;;;;;5.22;2.17;;;17.60;99.90;;;;;;5039741;28;20126;-62
2023/05/21 10:13:59;;;;;;;6.55;2.80;;;17.50;99.90;;;;;;5077937;28;20090;-61
2023/05/21 10:16:30;;;;;;;6.80;2.42;;;17.50;99.90;;;;;;5073371;28;20183;-61
2023/05/21 10:18:57;;;;;;;5.10;1.85;;;17.40;99.90;;;;;;5052144;28;20045;-62
2023/05/21 10:21:25;;;;;;;4.70;1.60;;;17.50;99.90;;;;;;5057824;28;20652;-62
2023/05/21 10:23:55;;;;;;;2.60;1.83;;;17.40;99.90;;;;;;5060893;28;20496;-61
2023/05/21 10:26:22;;;;;;;6.18;2.17;;;17.40;99.90;;;;;;5068021;28;20499;-62
2023/05/21 10:28:50;;;;;;;5.55;1.90;;;17.50;99.90;;;;;;5067984;28;20055;-61
2023/05/21 10:31:17;;;;;;;6.88;2.20;;;17.60;99.90;;;;;;5066844;28;20048;-62
2023/05/21 10:33:44;;;;;;;3.08;1.83;;;17.70;99.90;;;;;;5068689;28;20488;-63
2023/05/21 10:36:10;;;;;;;6.25;1.70;;;17.90;99.90;;;;;;5052402;28;20495;-61
2023/05/21 10:38:37;;;;;;;3.40;1.58;;;17.90;99.90;;;;;;5064174;28;20138;-62
2023/05/21 10:41:05;;;;;;;4.25;1.95;;;17.90;99.90;;;;;;5048818;28;20045;-62
2023/05/21 10:43:45;;;;;;;5.15;1.70;;;17.90;99.90;;;;;;5065004;28;20144;-67
2023/05/21 10:46:37;;;;;;;5.28;1.73;;;17.90;99.90;;;;;;5062134;28;20057;-63
2023/05/21 10:49:41;;;;;;;4.80;2.25;;;17.80;99.90;;;;;;5049387;28;20052;-62
2023/05/21 10:52:24;;;;;;;7.90;2.38;;;17.70;99.90;;;;;;5066949;28;20048;-66
2023/05/21 10:55:06;;;;;;;5.85;1.73;;;17.80;99.90;;;;;;5066616;28;20049;-61
2023/05/21 10:58:15;;;;;;;5.32;2.13;;;17.80;99.90;;;;;;5068709;28;20040;-61
2023/05/21 11:00:42;;;;;;;3.70;2.03;;;17.90;99.90;;;;;;5062332;28;20189;-60
2023/05/21 11:03:10;;;;;;;6.07;1.90;;;17.90;99.90;;;;;;5058564;28;20056;-61
2023/05/21 11:05:50;;;;;;;5.22;2.55;;;18.00;99.90;;;;;;5059358;28;20049;-61
2023/05/21 11:08:30;;;;;;;3.35;1.80;;;18.20;99.90;;;;;;5066976;28;20795;-62
2023/05/21 11:10:57;;;;;;;3.30;1.80;;;18.30;99.90;;;;;;5067310;28;20052;-61
2023/05/21 11:13:25;;;;;;;7.18;1.98;;;18.40;99.90;;;;;;5067148;28;20720;-61
2023/05/21 11:15:58;;;;;;;5.22;2.13;;;18.40;99.90;;;;;;5074602;28;20070;-61
2023/05/21 11:18:34;;;;;;;7.72;2.35;;;18.60;99.90;;;;;;5066931;28;20105;-62
2023/05/21 11:21:05;;;;;;;7.13;2.08;;;18.60;99.80;;;;;;5066763;28;20049;-62
2023/05/21 11:24:03;;;;;;;3.70;2.40;;;18.80;99.90;;;;;;5053160;28;20082;-62
2023/05/21 11:26:51;;;;;;;3.70;1.63;;;18.90;98.80;;;;;;5066479;28;20122;-60
2023/05/21 11:29:18;;;;;;;3.72;1.92;;;19.00;98.00;;;;;;5064847;28;20121;-60
2023/05/21 11:31:46;;;;;;;11.50;2.42;;;19.00;98.70;;;;;;5064835;28;20816;-61
2023/05/21 11:34:33;;;;;;;4.88;1.85;;;19.00;99.00;;;;;;5061829;28;20056;-61
2023/05/21 11:37:31;;;;;;;9.15;1.77;;;19.00;97.00;;;;;;5064916;28;20060;-61
2023/05/21 11:40:29;;;;;;;3.20;1.90;;;19.00;98.10;;;;;;5059215;28;20094;-61
2023/05/21 11:42:56;;;;;;;5.20;2.35;;;19.00;97.80;;;;;;5055394;28;20505;-62
2023/05/21 11:45:31;;;;;;;4.05;2.05;;;18.90;98.90;;;;;;5067555;28;20083;-62
2023/05/21 11:47:58;;;;;;;8.10;2.40;;;18.80;98.70;;;;;;5037055;28;20041;-61
2023/05/21 11:50:24;;;;;;;9.90;2.72;;;18.80;99.00;;;;;;5059597;28;20095;-61
2023/05/21 11:52:51;;;;;;;11.45;2.47;;;18.90;99.40;;;;;;5064766;28;20498;-62
2023/05/21 11:55:22;;;;;;;6.18;2.55;;;19.10;99.10;;;;;;5064338;28;20127;-63
2023/05/21 11:57:51;;;;;;;6.53;2.50;;;19.30;98.10;;;;;;5064184;28;20080;-61
2023/05/21 12:00:18;;;;;;;9.95;2.28;;;19.40;98.40;;;;;;5064219;28;20117;-62
2023/05/21 12:02:52;;;;;;;5.47;2.83;;;19.40;98.60;;;;;;5062832;28;20044;-62
2023/05/21 12:05:20;;;;;;;6.78;2.72;;;19.50;98.10;;;;;;5059741;28;20563;-60
2023/05/21 12:07:48;;;;;;;8.38;2.70;;;19.70;98.40;;;;;;5064103;28;20052;-65
2023/05/21 12:10:15;;;;;;;9.65;2.47;;;19.70;97.80;;;;;;5063877;28;20511;-61
2023/05/21 12:12:42;;;;;;;5.88;2.25;;;19.70;97.40;;;;;;5071213;28;20479;-62
2023/05/21 12:15:23;;;;;;;4.35;2.20;;;19.50;96.70;;;;;;5064096;28;20139;-61
2023/05/21 12:17:51;;;;;;;13.60;2.60;;;19.40;96.40;;;;;;5063033;28;20072;-62
2023/05/21 12:20:18;;;;;;;7.28;2.78;;;19.40;96.30;;;;;;5061901;28;20048;-61
2023/05/21 12:22:47;;;;;;;8.77;2.40;;;19.40;95.40;;;;;;5050808;28;20048;-62
2023/05/21 12:25:18;;;;;;;4.45;2.28;;;19.50;95.70;;;;;;5062226;28;20052;-62
2023/05/21 12:27:46;;;;;;;5.95;2.17;;;19.40;96.00;;;;;;5061933;28;20036;-62
2023/05/21 12:30:13;;;;;;;7.10;2.47;;;19.30;95.70;;;;;;5051756;28;20063;-62
2023/05/21 12:32:42;;;;;;;4.13;2.25;;;19.20;95.80;;;;;;5063236;28;20083;-61
2023/05/21 12:35:19;;;;;;;6.13;1.95;;;19.30;96.40;;;;;;5063670;28;20052;-62
2023/05/21 12:37:46;;;;;;;6.38;2.15;;;19.50;95.20;;;;;;5067316;28;20043;-61
2023/05/21 12:40:13;;;;;;;6.70;2.33;;;19.50;95.60;;;;;;5038785;28;20053;-61
2023/05/21 12:42:39;;;;;;;7.32;2.70;;;19.50;95.00;;;;;;5064052;28;20098;-61
2023/05/21 12:45:07;;;;;;;5.85;1.90;;;19.60;94.60;;;;;;5063410;28;20408;-61
2023/05/21 12:47:34;;;;;;;5.57;2.33;;;19.60;95.10;;;;;;5049585;28;20350;-61
2023/05/21 12:50:07;;;;;;;5.45;2.30;;;19.60;94.90;;;;;;5064200;28;20132;-61